10CL weather

Centerport Heliport
Costa Mesa, California, United States

Public forecast

Using degrees Fahrenheit for public forecast. Weather courtesy of forecast.io.

Closest aviation weather report (METAR) to Centerport Heliport

Closest report is John Wayne Airport-Orange County Airport, 0.4 nm (0.8 km) NE. Retrieved 2020/07/09 15:53 UTC (24 minutes ago):

KSNA 091553Z 24005KT 10SM SCT017 21/15 A2991 RMK AO2 SLP126 T02060150

Closest aviation forecast (TAF) to Centerport Heliport

Closest forecast is John Wayne Airport-Orange County Airport, 0.4 nm (0.8 km) NE. Retrieved 2020/07/09 12:22 UTC (4 hours ago):

TAF KSNA 091120Z 0912/1012 VRB04KT P6SM OVC011 FM091600 VRB04KT P6SM SCT015 FM092000 22008KT P6SM FEW015 FM100200 VRB05KT P6SM SCT012 FM100800 VRB04KT P6SM BKN010